sensor_id;sensor_type;location;lat;lon;timestamp;temperature;humidity
5779;DHT22;2916;49.798;10.022;2023-03-29T00:00:27;5.60;1.00
5779;DHT22;2916;49.798;10.022;2023-03-29T00:02:54;5.60;1.00
5779;DHT22;2916;49.798;10.022;2023-03-29T00:05:21;5.60;1.00
5779;DHT22;2916;49.798;10.022;2023-03-29T00:07:50;5.60;1.00
5779;DHT22;2916;49.798;10.022;2023-03-29T00:10:20;5.60;1.00
5779;DHT22;2916;49.798;10.022;2023-03-29T00:12:49;5.60;1.00
5779;DHT22;2916;49.798;10.022;2023-03-29T00:15:17;5.60;1.00
5779;DHT22;2916;49.798;10.022;2023-03-29T00:17:46;5.60;1.00
5779;DHT22;2916;49.798;10.022;2023-03-29T00:20:13;5.70;1.00
5779;DHT22;2916;49.798;10.022;2023-03-29T00:22:41;5.70;1.00
5779;DHT22;2916;49.798;10.022;2023-03-29T00:25:11;5.70;1.00
5779;DHT22;2916;49.798;10.022;2023-03-29T00:27:39;5.70;1.00
5779;DHT22;2916;49.798;10.022;2023-03-29T00:30:08;5.70;1.00
5779;DHT22;2916;49.798;10.022;2023-03-29T00:32:36;5.70;1.00
5779;DHT22;2916;49.798;10.022;2023-03-29T00:35:06;5.70;1.00
5779;DHT22;2916;49.798;10.022;2023-03-29T00:37:34;5.60;1.00
5779;DHT22;2916;49.798;10.022;2023-03-29T00:40:03;5.70;1.00
5779;DHT22;2916;49.798;10.022;2023-03-29T00:42:34;5.70;1.00
5779;DHT22;2916;49.798;10.022;2023-03-29T00:45:04;5.70;1.00
5779;DHT22;2916;49.798;10.022;2023-03-29T00:47:39;5.70;1.00
5779;DHT22;2916;49.798;10.022;2023-03-29T00:50:13;5.70;1.00
5779;DHT22;2916;49.798;10.022;2023-03-29T00:52:50;5.70;1.00
5779;DHT22;2916;49.798;10.022;2023-03-29T00:55:22;5.70;1.00
5779;DHT22;2916;49.798;10.022;2023-03-29T00:57:52;5.70;1.00
5779;DHT22;2916;49.798;10.022;2023-03-29T01:00:27;5.70;1.00
5779;DHT22;2916;49.798;10.022;2023-03-29T01:03:00;5.70;1.00
5779;DHT22;2916;49.798;10.022;2023-03-29T01:05:37;5.60;1.00
5779;DHT22;2916;49.798;10.022;2023-03-29T01:08:09;5.60;1.00
5779;DHT22;2916;49.798;10.022;2023-03-29T01:10:45;5.60;1.40
5779;DHT22;2916;49.798;10.022;2023-03-29T01:13:19;5.70;6.70
5779;DHT22;2916;49.798;10.022;2023-03-29T01:15:55;5.60;13.50
5779;DHT22;2916;49.798;10.022;2023-03-29T01:18:24;5.70;20.90
5779;DHT22;2916;49.798;10.022;2023-03-29T01:21:11;5.70;27.20
5779;DHT22;2916;49.798;10.022;2023-03-29T01:24:03;5.70;30.90
5779;DHT22;2916;49.798;10.022;2023-03-29T01:26:51;5.70;35.50
5779;DHT22;2916;49.798;10.022;2023-03-29T01:29:30;5.80;40.80
5779;DHT22;2916;49.798;10.022;2023-03-29T01:32:03;5.80;47.60
5779;DHT22;2916;49.798;10.022;2023-03-29T01:34:39;5.80;53.40
5779;DHT22;2916;49.798;10.022;2023-03-29T01:37:13;5.80;58.80
5779;DHT22;2916;49.798;10.022;2023-03-29T01:39:49;5.80;66.70
5779;DHT22;2916;49.798;10.022;2023-03-29T01:42:33;5.80;75.60
5779;DHT22;2916;49.798;10.022;2023-03-29T01:45:15;5.80;77.90
5779;DHT22;2916;49.798;10.022;2023-03-29T01:47:53;5.90;82.00
5779;DHT22;2916;49.798;10.022;2023-03-29T01:50:37;5.80;89.00
5779;DHT22;2916;49.798;10.022;2023-03-29T01:53:12;5.80;93.30
5779;DHT22;2916;49.798;10.022;2023-03-29T01:55:47;5.80;93.10
5779;DHT22;2916;49.798;10.022;2023-03-29T01:58:18;5.80;94.50
5779;DHT22;2916;49.798;10.022;2023-03-29T02:00:51;5.90;94.50
5779;DHT22;2916;49.798;10.022;2023-03-29T02:03:23;5.90;95.10
5779;DHT22;2916;49.798;10.022;2023-03-29T02:05:53;5.90;96.40
5779;DHT22;2916;49.798;10.022;2023-03-29T02:08:23;5.80;97.80
5779;DHT22;2916;49.798;10.022;2023-03-29T02:10:52;5.90;99.40
5779;DHT22;2916;49.798;10.022;2023-03-29T02:13:20;5.90;99.90
5779;DHT22;2916;49.798;10.022;2023-03-29T02:15:47;5.90;99.90
5779;DHT22;2916;49.798;10.022;2023-03-29T02:18:17;5.90;99.90
5779;DHT22;2916;49.798;10.022;2023-03-29T02:20:47;5.90;99.90
5779;DHT22;2916;49.798;10.022;2023-03-29T02:23:19;5.80;99.90
5779;DHT22;2916;49.798;10.022;2023-03-29T02:25:52;5.80;99.90
5779;DHT22;2916;49.798;10.022;2023-03-29T02:28:22;5.80;99.90
5779;DHT22;2916;49.798;10.022;2023-03-29T02:30:55;5.80;99.90
5779;DHT22;2916;49.798;10.022;2023-03-29T02:33:34;5.80;99.90
5779;DHT22;2916;49.798;10.022;2023-03-29T02:36:14;5.80;99.90
5779;DHT22;2916;49.798;10.022;2023-03-29T02:38:45;5.70;99.90
5779;DHT22;2916;49.798;10.022;2023-03-29T02:41:12;5.70;99.90
5779;DHT22;2916;49.798;10.022;2023-03-29T02:43:42;5.70;99.90
5779;DHT22;2916;49.798;10.022;2023-03-29T02:46:12;5.60;99.90
5779;DHT22;2916;49.798;10.022;2023-03-29T02:48:45;5.60;99.90
5779;DHT22;2916;49.798;10.022;2023-03-29T02:51:18;5.60;99.90
5779;DHT22;2916;49.798;10.022;2023-03-29T02:53:51;5.60;99.90
5779;DHT22;2916;49.798;10.022;2023-03-29T02:56:23;5.60;99.90
5779;DHT22;2916;49.798;10.022;2023-03-29T02:58:50;5.60;99.90
5779;DHT22;2916;49.798;10.022;2023-03-29T03:01:17;5.60;99.90
5779;DHT22;2916;49.798;10.022;2023-03-29T03:03:48;5.60;99.90
5779;DHT22;2916;49.798;10.022;2023-03-29T03:06:16;5.60;99.90
5779;DHT22;2916;49.798;10.022;2023-03-29T03:08:43;5.60;99.90
5779;DHT22;2916;49.798;10.022;2023-03-29T03:11:12;5.60;99.90
5779;DHT22;2916;49.798;10.022;2023-03-29T03:13:39;5.60;99.90
5779;DHT22;2916;49.798;10.022;2023-03-29T03:16:07;5.60;99.90
5779;DHT22;2916;49.798;10.022;2023-03-29T03:18:35;5.60;99.90
5779;DHT22;2916;49.798;10.022;2023-03-29T03:21:04;5.50;99.90
5779;DHT22;2916;49.798;10.022;2023-03-29T03:23:31;5.50;99.90
5779;DHT22;2916;49.798;10.022;2023-03-29T03:25:59;5.50;99.90
5779;DHT22;2916;49.798;10.022;2023-03-29T03:28:26;5.50;99.90
5779;DHT22;2916;49.798;10.022;2023-03-29T03:30:53;5.50;99.90
5779;DHT22;2916;49.798;10.022;2023-03-29T03:33:20;5.50;99.90
5779;DHT22;2916;49.798;10.022;2023-03-29T03:35:48;5.50;99.90
5779;DHT22;2916;49.798;10.022;2023-03-29T03:38:17;5.40;99.90
5779;DHT22;2916;49.798;10.022;2023-03-29T03:40:52;5.50;99.90
5779;DHT22;2916;49.798;10.022;2023-03-29T03:43:19;5.40;99.90
5779;DHT22;2916;49.798;10.022;2023-03-29T03:45:47;5.40;99.90
5779;DHT22;2916;49.798;10.022;2023-03-29T03:48:14;5.40;99.90
5779;DHT22;2916;49.798;10.022;2023-03-29T03:50:47;5.40;99.90
5779;DHT22;2916;49.798;10.022;2023-03-29T03:53:14;5.40;99.90
5779;DHT22;2916;49.798;10.022;2023-03-29T03:55:46;5.40;99.90
5779;DHT22;2916;49.798;10.022;2023-03-29T03:58:14;5.50;99.90
5779;DHT22;2916;49.798;10.022;2023-03-29T04:00:41;5.40;99.90
5779;DHT22;2916;49.798;10.022;2023-03-29T04:03:09;5.30;99.90
5779;DHT22;2916;49.798;10.022;2023-03-29T04:05:38;5.30;99.90
5779;DHT22;2916;49.798;10.022;2023-03-29T04:08:06;5.30;99.90
5779;DHT22;2916;49.798;10.022;2023-03-29T04:10:35;5.30;99.90
5779;DHT22;2916;49.798;10.022;2023-03-29T04:13:02;5.30;99.90
5779;DHT22;2916;49.798;10.022;2023-03-29T04:15:31;5.40;99.90
5779;DHT22;2916;49.798;10.022;2023-03-29T04:18:00;5.30;99.90
5779;DHT22;2916;49.798;10.022;2023-03-29T04:20:27;5.30;99.90
5779;DHT22;2916;49.798;10.022;2023-03-29T04:22:54;5.30;99.90
5779;DHT22;2916;49.798;10.022;2023-03-29T04:25:21;5.20;99.90
5779;DHT22;2916;49.798;10.022;2023-03-29T04:27:51;5.20;99.90
5779;DHT22;2916;49.798;10.022;2023-03-29T04:30:18;5.20;99.90
5779;DHT22;2916;49.798;10.022;2023-03-29T04:32:45;5.20;99.90
5779;DHT22;2916;49.798;10.022;2023-03-29T04:35:12;5.20;99.90
5779;DHT22;2916;49.798;10.022;2023-03-29T04:37:40;5.10;99.90
5779;DHT22;2916;49.798;10.022;2023-03-29T04:40:08;5.10;99.90
5779;DHT22;2916;49.798;10.022;2023-03-29T04:42:38;5.10;99.90
5779;DHT22;2916;49.798;10.022;2023-03-29T04:45:11;5.10;99.90
5779;DHT22;2916;49.798;10.022;2023-03-29T04:47:38;5.20;99.90
5779;DHT22;2916;49.798;10.022;2023-03-29T04:50:07;5.20;99.90
5779;DHT22;2916;49.798;10.022;2023-03-29T04:52:34;5.20;99.90
5779;DHT22;2916;49.798;10.022;2023-03-29T04:55:03;5.20;99.90
5779;DHT22;2916;49.798;10.022;2023-03-29T04:57:32;5.20;99.90
5779;DHT22;2916;49.798;10.022;2023-03-29T05:00:00;5.20;99.90
5779;DHT22;2916;49.798;10.022;2023-03-29T05:02:34;5.30;99.90
5779;DHT22;2916;49.798;10.022;2023-03-29T05:05:01;5.30;99.90
5779;DHT22;2916;49.798;10.022;2023-03-29T05:07:28;5.30;99.90
5779;DHT22;2916;49.798;10.022;2023-03-29T05:09:56;5.30;99.90
5779;DHT22;2916;49.798;10.022;2023-03-29T05:12:23;5.40;99.90
5779;DHT22;2916;49.798;10.022;2023-03-29T05:14:50;5.30;99.90
5779;DHT22;2916;49.798;10.022;2023-03-29T05:17:17;5.30;99.90
5779;DHT22;2916;49.798;10.022;2023-03-29T05:19:46;5.40;99.90
5779;DHT22;2916;49.798;10.022;2023-03-29T05:22:13;5.40;99.90
5779;DHT22;2916;49.798;10.022;2023-03-29T05:24:41;5.40;99.90
5779;DHT22;2916;49.798;10.022;2023-03-29T05:27:09;5.40;99.90
5779;DHT22;2916;49.798;10.022;2023-03-29T05:29:36;5.40;99.90
5779;DHT22;2916;49.798;10.022;2023-03-29T05:32:03;5.40;99.90
5779;DHT22;2916;49.798;10.022;2023-03-29T05:34:31;5.50;99.90
5779;DHT22;2916;49.798;10.022;2023-03-29T05:37:00;5.50;99.90
5779;DHT22;2916;49.798;10.022;2023-03-29T05:39:27;5.60;99.90
5779;DHT22;2916;49.798;10.022;2023-03-29T05:41:55;5.50;99.90
5779;DHT22;2916;49.798;10.022;2023-03-29T05:44:23;5.60;99.90
5779;DHT22;2916;49.798;10.022;2023-03-29T05:46:51;5.60;99.90
5779;DHT22;2916;49.798;10.022;2023-03-29T05:49:18;5.60;99.90
5779;DHT22;2916;49.798;10.022;2023-03-29T05:51:46;5.60;99.90
5779;DHT22;2916;49.798;10.022;2023-03-29T05:54:14;5.60;99.90
5779;DHT22;2916;49.798;10.022;2023-03-29T05:56:41;5.70;99.90
5779;DHT22;2916;49.798;10.022;2023-03-29T05:59:09;5.70;99.90
5779;DHT22;2916;49.798;10.022;2023-03-29T06:01:36;5.60;99.90
5779;DHT22;2916;49.798;10.022;2023-03-29T06:04:04;5.70;99.90
5779;DHT22;2916;49.798;10.022;2023-03-29T06:06:32;5.70;99.90
5779;DHT22;2916;49.798;10.022;2023-03-29T06:09:00;5.80;99.90
5779;DHT22;2916;49.798;10.022;2023-03-29T06:11:29;5.80;99.90
5779;DHT22;2916;49.798;10.022;2023-03-29T06:13:57;5.90;99.90
5779;DHT22;2916;49.798;10.022;2023-03-29T06:16:24;5.80;99.90
5779;DHT22;2916;49.798;10.022;2023-03-29T06:18:52;5.80;99.90
5779;DHT22;2916;49.798;10.022;2023-03-29T06:21:19;5.90;99.90
5779;DHT22;2916;49.798;10.022;2023-03-29T06:23:47;5.90;99.90
5779;DHT22;2916;49.798;10.022;2023-03-29T06:26:14;5.90;99.90
5779;DHT22;2916;49.798;10.022;2023-03-29T06:28:43;5.90;99.90
5779;DHT22;2916;49.798;10.022;2023-03-29T06:31:10;6.00;99.90
5779;DHT22;2916;49.798;10.022;2023-03-29T06:33:38;6.00;99.90
5779;DHT22;2916;49.798;10.022;2023-03-29T06:36:08;6.10;99.90
5779;DHT22;2916;49.798;10.022;2023-03-29T06:38:36;6.20;99.90
5779;DHT22;2916;49.798;10.022;2023-03-29T06:41:05;6.20;99.90
5779;DHT22;2916;49.798;10.022;2023-03-29T06:43:35;6.20;99.90
5779;DHT22;2916;49.798;10.022;2023-03-29T06:46:04;6.30;99.90
5779;DHT22;2916;49.798;10.022;2023-03-29T06:48:36;6.40;99.90
5779;DHT22;2916;49.798;10.022;2023-03-29T06:51:03;6.50;99.90
5779;DHT22;2916;49.798;10.022;2023-03-29T06:53:32;6.50;99.90
5779;DHT22;2916;49.798;10.022;2023-03-29T06:55:59;6.60;99.90
5779;DHT22;2916;49.798;10.022;2023-03-29T06:58:29;6.70;99.90
5779;DHT22;2916;49.798;10.022;2023-03-29T07:00:59;6.80;99.90
5779;DHT22;2916;49.798;10.022;2023-03-29T07:03:29;6.80;99.90
5779;DHT22;2916;49.798;10.022;2023-03-29T07:06:00;6.90;99.90
5779;DHT22;2916;49.798;10.022;2023-03-29T07:08:29;7.00;99.90
5779;DHT22;2916;49.798;10.022;2023-03-29T07:10:56;7.10;99.90
5779;DHT22;2916;49.798;10.022;2023-03-29T07:13:24;7.20;99.90
5779;DHT22;2916;49.798;10.022;2023-03-29T07:15:52;7.50;99.90
5779;DHT22;2916;49.798;10.022;2023-03-29T07:18:19;8.30;99.90
5779;DHT22;2916;49.798;10.022;2023-03-29T07:20:49;8.70;99.90
5779;DHT22;2916;49.798;10.022;2023-03-29T07:23:16;8.90;98.80
5779;DHT22;2916;49.798;10.022;2023-03-29T07:25:44;9.90;96.10
5779;DHT22;2916;49.798;10.022;2023-03-29T07:28:11;10.00;91.60
5779;DHT22;2916;49.798;10.022;2023-03-29T07:30:39;10.40;71.10
5779;DHT22;2916;49.798;10.022;2023-03-29T07:33:06;10.90;65.30
5779;DHT22;2916;49.798;10.022;2023-03-29T07:35:33;11.10;40.30
5779;DHT22;2916;49.798;10.022;2023-03-29T07:38:05;11.00;35.10
5779;DHT22;2916;49.798;10.022;2023-03-29T07:40:33;11.30;39.80
5779;DHT22;2916;49.798;10.022;2023-03-29T07:43:01;11.00;29.00
5779;DHT22;2916;49.798;10.022;2023-03-29T07:45:33;11.10;30.00
5779;DHT22;2916;49.798;10.022;2023-03-29T07:48:01;10.80;32.40
5779;DHT22;2916;49.798;10.022;2023-03-29T07:50:29;11.00;37.80
5779;DHT22;2916;49.798;10.022;2023-03-29T07:52:57;10.80;28.60
5779;DHT22;2916;49.798;10.022;2023-03-29T07:55:26;10.70;31.50
5779;DHT22;2916;49.798;10.022;2023-03-29T07:57:54;10.70;28.70
5779;DHT22;2916;49.798;10.022;2023-03-29T08:00:21;10.60;29.60
5779;DHT22;2916;49.798;10.022;2023-03-29T08:02:50;10.80;26.10
5779;DHT22;2916;49.798;10.022;2023-03-29T08:05:19;10.70;29.90
5779;DHT22;2916;49.798;10.022;2023-03-29T08:07:48;10.80;28.30
5779;DHT22;2916;49.798;10.022;2023-03-29T08:10:16;10.60;30.20
5779;DHT22;2916;49.798;10.022;2023-03-29T08:12:49;10.70;39.20
5779;DHT22;2916;49.798;10.022;2023-03-29T08:15:17;10.70;23.40
5779;DHT22;2916;49.798;10.022;2023-03-29T08:17:44;10.80;21.40
5779;DHT22;2916;49.798;10.022;2023-03-29T08:20:13;11.10;19.50
5779;DHT22;2916;49.798;10.022;2023-03-29T08:22:42;11.00;20.70
5779;DHT22;2916;49.798;10.022;2023-03-29T08:25:09;11.10;18.50
5779;DHT22;2916;49.798;10.022;2023-03-29T08:27:37;11.20;17.70
5779;DHT22;2916;49.798;10.022;2023-03-29T08:30:07;11.10;10.90
5779;DHT22;2916;49.798;10.022;2023-03-29T08:32:35;11.20;18.90
5779;DHT22;2916;49.798;10.022;2023-03-29T08:35:02;11.20;11.60
5779;DHT22;2916;49.798;10.022;2023-03-29T08:37:31;11.20;10.80
5779;DHT22;2916;49.798;10.022;2023-03-29T08:39:58;11.20;7.70
5779;DHT22;2916;49.798;10.022;2023-03-29T08:42:42;11.10;7.90
5779;DHT22;2916;49.798;10.022;2023-03-29T08:45:33;11.20;6.10
5779;DHT22;2916;49.798;10.022;2023-03-29T08:48:15;11.10;6.00
5779;DHT22;2916;49.798;10.022;2023-03-29T08:50:51;11.00;6.40
5779;DHT22;2916;49.798;10.022;2023-03-29T08:53:25;10.90;6.30
5779;DHT22;2916;49.798;10.022;2023-03-29T08:55:57;11.00;6.90
5779;DHT22;2916;49.798;10.022;2023-03-29T08:58:31;11.10;7.10
5779;DHT22;2916;49.798;10.022;2023-03-29T09:01:03;11.20;7.00
5779;DHT22;2916;49.798;10.022;2023-03-29T09:03:35;11.10;7.60
5779;DHT22;2916;49.798;10.022;2023-03-29T09:06:08;11.10;7.80
5779;DHT22;2916;49.798;10.022;2023-03-29T09:08:39;11.10;7.60
5779;DHT22;2916;49.798;10.022;2023-03-29T09:11:24;11.20;5.50
5779;DHT22;2916;49.798;10.022;2023-03-29T09:14:20;11.20;1.70
5779;DHT22;2916;49.798;10.022;2023-03-29T09:17:05;11.20;1.50
5779;DHT22;2916;49.798;10.022;2023-03-29T09:19:45;11.30;1.40
5779;DHT22;2916;49.798;10.022;2023-03-29T09:22:21;11.30;1.00
5779;DHT22;2916;49.798;10.022;2023-03-29T09:25:02;11.50;1.00
5779;DHT22;2916;49.798;10.022;2023-03-29T09:27:42;11.70;1.70
5779;DHT22;2916;49.798;10.022;2023-03-29T09:30:18;11.80;1.00
5779;DHT22;2916;49.798;10.022;2023-03-29T09:32:53;12.10;1.00
5779;DHT22;2916;49.798;10.022;2023-03-29T09:35:27;11.90;1.00
5779;DHT22;2916;49.798;10.022;2023-03-29T09:37:57;11.80;1.00
5779;DHT22;2916;49.798;10.022;2023-03-29T09:40:28;11.70;1.00
5779;DHT22;2916;49.798;10.022;2023-03-29T09:43:07;11.80;1.00
5779;DHT22;2916;49.798;10.022;2023-03-29T09:45:38;12.00;1.00
5779;DHT22;2916;49.798;10.022;2023-03-29T09:48:12;12.00;1.00
5779;DHT22;2916;49.798;10.022;2023-03-29T09:50:42;12.20;1.00
5779;DHT22;2916;49.798;10.022;2023-03-29T09:53:13;12.40;1.00
5779;DHT22;2916;49.798;10.022;2023-03-29T09:55:42;12.60;1.00
5779;DHT22;2916;49.798;10.022;2023-03-29T09:58:13;12.70;1.00
5779;DHT22;2916;49.798;10.022;2023-03-29T10:00:43;12.90;1.00
5779;DHT22;2916;49.798;10.022;2023-03-29T10:03:18;12.90;1.00
5779;DHT22;2916;49.798;10.022;2023-03-29T10:05:48;13.00;1.00
5779;DHT22;2916;49.798;10.022;2023-03-29T10:08:21;13.30;1.00
5779;DHT22;2916;49.798;10.022;2023-03-29T10:10:53;13.60;1.00
5779;DHT22;2916;49.798;10.022;2023-03-29T10:13:26;13.70;1.00
5779;DHT22;2916;49.798;10.022;2023-03-29T10:15:57;13.90;1.00
5779;DHT22;2916;49.798;10.022;2023-03-29T10:18:30;13.80;1.00
5779;DHT22;2916;49.798;10.022;2023-03-29T10:21:00;13.80;1.00
5779;DHT22;2916;49.798;10.022;2023-03-29T10:23:30;14.10;1.00
5779;DHT22;2916;49.798;10.022;2023-03-29T10:25:59;14.30;1.00
5779;DHT22;2916;49.798;10.022;2023-03-29T10:28:29;14.00;1.00
5779;DHT22;2916;49.798;10.022;2023-03-29T10:30:59;14.30;1.00
5779;DHT22;2916;49.798;10.022;2023-03-29T10:33:31;14.40;1.00
5779;DHT22;2916;49.798;10.022;2023-03-29T10:36:02;14.40;1.00
5779;DHT22;2916;49.798;10.022;2023-03-29T10:38:34;14.70;1.00
5779;DHT22;2916;49.798;10.022;2023-03-29T10:41:05;14.70;1.00
5779;DHT22;2916;49.798;10.022;2023-03-29T10:43:38;14.50;1.00
5779;DHT22;2916;49.798;10.022;2023-03-29T10:46:10;14.90;1.00
5779;DHT22;2916;49.798;10.022;2023-03-29T10:48:49;15.10;1.00
5779;DHT22;2916;49.798;10.022;2023-03-29T10:51:24;15.20;1.00
5779;DHT22;2916;49.798;10.022;2023-03-29T10:53:56;15.30;1.00
5779;DHT22;2916;49.798;10.022;2023-03-29T10:56:33;15.30;1.00
5779;DHT22;2916;49.798;10.022;2023-03-29T10:59:28;15.60;1.00
5779;DHT22;2916;49.798;10.022;2023-03-29T11:02:37;15.50;1.00
5779;DHT22;2916;49.798;10.022;2023-03-29T11:05:32;15.60;1.00
5779;DHT22;2916;49.798;10.022;2023-03-29T11:08:15;15.50;1.00
5779;DHT22;2916;49.798;10.022;2023-03-29T11:10:56;15.40;1.00
5779;DHT22;2916;49.798;10.022;2023-03-29T11:13:40;14.90;1.00
5779;DHT22;2916;49.798;10.022;2023-03-29T11:16:22;15.10;1.00
5779;DHT22;2916;49.798;10.022;2023-03-29T11:19:11;15.20;1.00
5779;DHT22;2916;49.798;10.022;2023-03-29T11:22:03;15.30;1.00
5779;DHT22;2916;49.798;10.022;2023-03-29T11:24:49;15.60;1.00
5779;DHT22;2916;49.798;10.022;2023-03-29T11:27:33;15.00;1.00
5779;DHT22;2916;49.798;10.022;2023-03-29T11:30:09;15.30;1.00
5779;DHT22;2916;49.798;10.022;2023-03-29T11:32:52;15.70;1.00
5779;DHT22;2916;49.798;10.022;2023-03-29T11:35:42;15.80;1.00
5779;DHT22;2916;49.798;10.022;2023-03-29T11:38:22;15.80;1.00
5779;DHT22;2916;49.798;10.022;2023-03-29T11:40:59;15.60;1.00
5779;DHT22;2916;49.798;10.022;2023-03-29T11:43:33;15.70;1.00
5779;DHT22;2916;49.798;10.022;2023-03-29T11:46:10;15.80;1.00
5779;DHT22;2916;49.798;10.022;2023-03-29T11:48:46;15.80;1.00
5779;DHT22;2916;49.798;10.022;2023-03-29T11:51:22;16.00;1.00
5779;DHT22;2916;49.798;10.022;2023-03-29T11:53:58;15.90;1.00
5779;DHT22;2916;49.798;10.022;2023-03-29T11:56:32;16.10;1.00
5779;DHT22;2916;49.798;10.022;2023-03-29T11:59:11;16.10;1.00
5779;DHT22;2916;49.798;10.022;2023-03-29T12:01:45;16.00;1.00
5779;DHT22;2916;49.798;10.022;2023-03-29T12:04:22;15.80;1.00
5779;DHT22;2916;49.798;10.022;2023-03-29T12:07:00;15.80;1.00
5779;DHT22;2916;49.798;10.022;2023-03-29T12:09:40;16.00;1.00
5779;DHT22;2916;49.798;10.022;2023-03-29T12:12:18;15.90;1.00
5779;DHT22;2916;49.798;10.022;2023-03-29T12:14:57;15.90;1.00
5779;DHT22;2916;49.798;10.022;2023-03-29T12:17:31;16.10;1.00
5779;DHT22;2916;49.798;10.022;2023-03-29T12:20:09;16.20;1.00
5779;DHT22;2916;49.798;10.022;2023-03-29T12:22:41;16.40;1.00
5779;DHT22;2916;49.798;10.022;2023-03-29T12:25:16;16.70;1.00
5779;DHT22;2916;49.798;10.022;2023-03-29T12:27:58;16.70;1.00
5779;DHT22;2916;49.798;10.022;2023-03-29T12:30:48;16.70;1.00
5779;DHT22;2916;49.798;10.022;2023-03-29T12:36:48;16.20;1.00
5779;DHT22;2916;49.798;10.022;2023-03-29T12:39:38;16.30;1.00
5779;DHT22;2916;49.798;10.022;2023-03-29T12:42:13;16.50;1.00
5779;DHT22;2916;49.798;10.022;2023-03-29T12:44:44;16.40;1.00
5779;DHT22;2916;49.798;10.022;2023-03-29T12:47:19;16.40;1.00
5779;DHT22;2916;49.798;10.022;2023-03-29T12:49:51;16.10;1.00
5779;DHT22;2916;49.798;10.022;2023-03-29T12:52:24;15.80;1.00
5779;DHT22;2916;49.798;10.022;2023-03-29T12:54:57;15.70;1.00
5779;DHT22;2916;49.798;10.022;2023-03-29T12:57:38;15.60;1.00
5779;DHT22;2916;49.798;10.022;2023-03-29T13:00:17;15.80;1.00
5779;DHT22;2916;49.798;10.022;2023-03-29T13:02:59;15.70;1.00
5779;DHT22;2916;49.798;10.022;2023-03-29T13:05:33;15.60;1.00
5779;DHT22;2916;49.798;10.022;2023-03-29T13:08:25;15.80;1.00
5779;DHT22;2916;49.798;10.022;2023-03-29T13:10:58;16.20;1.00
5779;DHT22;2916;49.798;10.022;2023-03-29T13:13:29;16.40;1.00
5779;DHT22;2916;49.798;10.022;2023-03-29T13:16:14;16.30;1.00
5779;DHT22;2916;49.798;10.022;2023-03-29T13:18:55;15.90;1.00
5779;DHT22;2916;49.798;10.022;2023-03-29T13:21:37;15.60;1.00
5779;DHT22;2916;49.798;10.022;2023-03-29T13:24:27;15.70;1.00
5779;DHT22;2916;49.798;10.022;2023-03-29T13:27:10;15.90;1.00
5779;DHT22;2916;49.798;10.022;2023-03-29T13:30:04;15.80;1.00
5779;DHT22;2916;49.798;10.022;2023-03-29T13:32:49;16.00;1.00
5779;DHT22;2916;49.798;10.022;2023-03-29T13:35:36;15.80;1.00
5779;DHT22;2916;49.798;10.022;2023-03-29T13:38:17;15.80;1.00
5779;DHT22;2916;49.798;10.022;2023-03-29T13:40:58;15.90;1.00
5779;DHT22;2916;49.798;10.022;2023-03-29T13:43:33;16.00;1.00
5779;DHT22;2916;49.798;10.022;2023-03-29T13:46:18;15.90;1.00
5779;DHT22;2916;49.798;10.022;2023-03-29T13:48:55;15.90;1.00
5779;DHT22;2916;49.798;10.022;2023-03-29T13:51:33;16.00;1.00
5779;DHT22;2916;49.798;10.022;2023-03-29T13:54:12;16.20;1.00
5779;DHT22;2916;49.798;10.022;2023-03-29T13:56:55;15.90;1.00
5779;DHT22;2916;49.798;10.022;2023-03-29T13:59:34;15.40;1.00
5779;DHT22;2916;49.798;10.022;2023-03-29T14:02:13;15.30;1.00
5779;DHT22;2916;49.798;10.022;2023-03-29T14:04:49;15.30;1.00
5779;DHT22;2916;49.798;10.022;2023-03-29T14:07:19;15.30;1.00
5779;DHT22;2916;49.798;10.022;2023-03-29T14:09:52;15.40;1.00
5779;DHT22;2916;49.798;10.022;2023-03-29T14:12:21;15.40;1.00
5779;DHT22;2916;49.798;10.022;2023-03-29T14:14:49;15.10;1.00
5779;DHT22;2916;49.798;10.022;2023-03-29T14:17:24;15.10;1.00
5779;DHT22;2916;49.798;10.022;2023-03-29T14:19:56;15.20;1.00
5779;DHT22;2916;49.798;10.022;2023-03-29T14:22:29;15.50;1.00
5779;DHT22;2916;49.798;10.022;2023-03-29T14:25:04;15.30;1.00
5779;DHT22;2916;49.798;10.022;2023-03-29T14:27:35;15.30;1.00
5779;DHT22;2916;49.798;10.022;2023-03-29T14:30:17;15.50;1.00
5779;DHT22;2916;49.798;10.022;2023-03-29T14:32:49;15.60;1.00
5779;DHT22;2916;49.798;10.022;2023-03-29T14:35:17;15.40;1.00
5779;DHT22;2916;49.798;10.022;2023-03-29T14:37:45;15.50;1.00
5779;DHT22;2916;49.798;10.022;2023-03-29T14:40:18;15.50;1.00
5779;DHT22;2916;49.798;10.022;2023-03-29T14:42:47;15.60;1.00
5779;DHT22;2916;49.798;10.022;2023-03-29T14:45:16;15.60;1.00
5779;DHT22;2916;49.798;10.022;2023-03-29T14:47:49;15.70;1.00
5779;DHT22;2916;49.798;10.022;2023-03-29T14:50:27;15.70;1.00
5779;DHT22;2916;49.798;10.022;2023-03-29T14:52:56;15.70;1.00
5779;DHT22;2916;49.798;10.022;2023-03-29T14:55:26;15.80;1.00
5779;DHT22;2916;49.798;10.022;2023-03-29T14:57:54;15.80;1.00
5779;DHT22;2916;49.798;10.022;2023-03-29T15:00:27;15.80;1.00
5779;DHT22;2916;49.798;10.022;2023-03-29T15:03:01;15.80;1.00
5779;DHT22;2916;49.798;10.022;2023-03-29T15:05:35;15.80;1.00
5779;DHT22;2916;49.798;10.022;2023-03-29T15:08:06;15.50;1.00
5779;DHT22;2916;49.798;10.022;2023-03-29T15:10:39;15.60;1.00
5779;DHT22;2916;49.798;10.022;2023-03-29T15:13:07;15.60;1.00
5779;DHT22;2916;49.798;10.022;2023-03-29T15:15:42;15.70;1.00
5779;DHT22;2916;49.798;10.022;2023-03-29T15:18:13;15.80;1.00
5779;DHT22;2916;49.798;10.022;2023-03-29T15:20:42;15.60;1.00
5779;DHT22;2916;49.798;10.022;2023-03-29T15:23:33;15.60;1.00
5779;DHT22;2916;49.798;10.022;2023-03-29T15:26:07;15.60;1.00
5779;DHT22;2916;49.798;10.022;2023-03-29T15:28:46;15.60;1.00
5779;DHT22;2916;49.798;10.022;2023-03-29T15:31:16;15.50;1.00
5779;DHT22;2916;49.798;10.022;2023-03-29T15:33:46;15.50;1.00
5779;DHT22;2916;49.798;10.022;2023-03-29T15:36:14;15.50;1.00
5779;DHT22;2916;49.798;10.022;2023-03-29T15:38:41;15.60;1.00
5779;DHT22;2916;49.798;10.022;2023-03-29T15:41:09;15.60;1.00
5779;DHT22;2916;49.798;10.022;2023-03-29T15:43:37;15.50;1.00
5779;DHT22;2916;49.798;10.022;2023-03-29T15:46:05;15.50;1.00
5779;DHT22;2916;49.798;10.022;2023-03-29T15:48:33;15.50;1.00
5779;DHT22;2916;49.798;10.022;2023-03-29T15:51:01;15.50;1.00
5779;DHT22;2916;49.798;10.022;2023-03-29T15:53:29;15.30;1.00
5779;DHT22;2916;49.798;10.022;2023-03-29T15:55:59;15.40;1.00
5779;DHT22;2916;49.798;10.022;2023-03-29T15:58:29;15.30;1.00
5779;DHT22;2916;49.798;10.022;2023-03-29T16:01:01;15.20;1.00
5779;DHT22;2916;49.798;10.022;2023-03-29T16:03:36;15.40;1.00
5779;DHT22;2916;49.798;10.022;2023-03-29T16:06:09;15.40;1.00
5779;DHT22;2916;49.798;10.022;2023-03-29T16:08:36;15.50;1.00
5779;DHT22;2916;49.798;10.022;2023-03-29T16:11:05;15.40;1.00
5779;DHT22;2916;49.798;10.022;2023-03-29T16:13:33;15.40;1.00
5779;DHT22;2916;49.798;10.022;2023-03-29T16:16:00;15.40;1.00
5779;DHT22;2916;49.798;10.022;2023-03-29T16:18:27;15.30;1.00
5779;DHT22;2916;49.798;10.022;2023-03-29T16:20:54;15.40;1.00
5779;DHT22;2916;49.798;10.022;2023-03-29T16:23:23;15.40;1.00
5779;DHT22;2916;49.798;10.022;2023-03-29T16:25:51;15.40;1.00
5779;DHT22;2916;49.798;10.022;2023-03-29T16:28:18;15.40;1.00
5779;DHT22;2916;49.798;10.022;2023-03-29T16:30:47;15.40;1.00
5779;DHT22;2916;49.798;10.022;2023-03-29T16:33:14;15.50;1.00
5779;DHT22;2916;49.798;10.022;2023-03-29T16:35:42;15.40;1.00
5779;DHT22;2916;49.798;10.022;2023-03-29T16:38:09;15.40;1.00